Time;durP1;ratioP1;P1;durP2;ratioP2;P2;SDS_P1;SDS_P2;PMS_P1;PMS_P2;Temp;Humidity;BMP_temperature;BMP_pressure;BME280_temperature;BME280_humidity;BME280_pressure;Samples;Min_cycle;Max_cycle;Signal;HPM_P1;HPM_P2
2023/10/23 00:01:22;;;;;;;36.63;6.60;;;;;;;17.07;65.85;94079.16;5065152;28;20096;-80
2023/10/23 00:03:47;;;;;;;28.33;6.00;;;;;;;17.03;65.53;94071.75;5064714;28;20036;-80
2023/10/23 00:06:13;;;;;;;23.50;5.10;;;;;;;16.99;65.85;94078.97;5064998;28;20059;-80
2023/10/23 00:08:38;;;;;;;25.65;6.05;;;;;;;16.93;66.09;94069.59;5065490;28;20258;-80
2023/10/23 00:11:03;;;;;;;26.92;6.40;;;;;;;16.87;66.41;94068.28;5065219;28;20032;-82
2023/10/23 00:13:29;;;;;;;29.10;7.18;;;;;;;16.81;67.03;94072.38;5063856;28;20024;-82
2023/10/23 00:15:54;;;;;;;28.95;6.55;;;;;;;16.81;67.10;94069.69;5064673;28;20028;-82
2023/10/23 00:18:20;;;;;;;31.60;7.10;;;;;;;16.84;67.13;94061.69;5064613;28;20043;-82
2023/10/23 00:20:47;;;;;;;22.73;5.60;;;;;;;16.84;67.09;94061.69;5080441;28;20103;-88
2023/10/23 00:23:13;;;;;;;16.77;5.70;;;;;;;16.81;67.27;94072.38;5080316;28;20025;-80
2023/10/23 00:25:38;;;;;;;51.03;7.88;;;;;;;16.79;67.02;94063.81;5064124;28;20020;-81
2023/10/23 00:28:04;;;;;;;29.15;6.47;;;;;;;16.80;66.88;94068.88;5065013;28;20051;-84
2023/10/23 00:30:33;;;;;;;39.45;6.53;;;;;;;16.80;67.22;94065.41;5063043;28;20025;-84
2023/10/23 00:32:58;;;;;;;34.85;6.30;;;;;;;16.77;66.75;94071.47;5064074;28;20020;-80
2023/10/23 00:35:24;;;;;;;32.30;6.45;;;;;;;16.77;66.76;94082.22;5064013;28;20082;-80
2023/10/23 00:37:49;;;;;;;31.17;8.07;;;;;;;16.78;66.96;94067.66;5064298;28;20017;-80
2023/10/23 00:40:15;;;;;;;27.27;6.53;;;;;;;16.75;67.04;94074.53;5064353;28;20108;-79
2023/10/23 00:42:40;;;;;;;28.42;6.68;;;;;;;16.72;67.23;94066.34;5064237;28;20032;-79
2023/10/23 00:45:06;;;;;;;40.50;7.88;;;;;;;16.71;67.33;94057.50;5063989;28;20078;-79
2023/10/23 00:47:32;;;;;;;31.60;6.70;;;;;;;16.72;67.44;94069.81;5064432;28;20021;-79
2023/10/23 00:49:59;;;;;;;31.48;6.30;;;;;;;16.74;67.74;94069.47;5063597;28;20024;-79
2023/10/23 00:52:25;;;;;;;32.97;8.63;;;;;;;16.73;67.61;94062.53;5063803;28;20020;-79
2023/10/23 00:54:52;;;;;;;27.75;7.30;;;;;;;16.69;67.83;94072.41;5063966;28;20079;-79
2023/10/23 00:57:17;;;;;;;20.63;6.18;;;;;;;16.65;68.16;94069.66;5063930;28;20025;-79
2023/10/23 00:59:43;;;;;;;36.30;6.32;;;;;;;16.62;68.14;94060.34;5063792;28;20096;-79
2023/10/23 01:02:09;;;;;;;32.08;7.88;;;;;;;16.66;68.29;94065.81;5063692;28;20252;-79
2023/10/23 01:04:36;;;;;;;27.55;7.07;;;;;;;16.68;68.00;94057.41;5063557;28;20192;-79
2023/10/23 01:07:01;;;;;;;31.98;7.10;;;;;;;16.73;68.22;94049.06;5063704;28;20028;-79
2023/10/23 01:09:27;;;;;;;31.10;8.00;;;;;;;16.77;68.00;94066.09;5063538;28;20100;-79
2023/10/23 01:11:52;;;;;;;25.45;6.88;;;;;;;16.75;68.29;94063.75;5063497;28;20066;-79
2023/10/23 01:14:18;;;;;;;22.17;6.38;;;;;;;16.78;68.04;94062.28;5063290;28;20021;-79
2023/10/23 01:16:43;;;;;;;42.25;7.20;;;;;;;16.80;68.25;94058.09;5063294;28;20020;-79
2023/10/23 01:19:09;;;;;;;26.55;6.63;;;;;;;16.83;68.12;94060.16;5063281;28;20028;-79
2023/10/23 01:21:34;;;;;;;25.77;5.65;;;;;;;16.87;68.44;94054.81;5063398;28;20279;-80
2023/10/23 01:24:03;;;;;;;30.77;6.43;;;;;;;16.89;68.11;94065.25;5063289;28;20066;-79
2023/10/23 01:26:29;;;;;;;31.70;7.63;;;;;;;16.92;68.14;94057.28;5062862;28;20025;-79
2023/10/23 01:28:54;;;;;;;33.38;7.70;;;;;;;16.93;68.39;94064.19;5062974;28;20100;-79
2023/10/23 01:31:19;;;;;;;21.80;6.07;;;;;;;16.93;68.42;94064.19;5063104;28;20039;-79
2023/10/23 01:33:45;;;;;;;29.92;8.55;;;;;;;16.94;68.69;94059.63;5061785;28;20025;-79
2023/10/23 01:36:10;;;;;;;26.52;7.13;;;;;;;16.96;68.82;94063.53;5062853;28;20021;-79
2023/10/23 01:38:36;;;;;;;24.05;6.50;;;;;;;16.96;68.93;94052.75;5063336;28;20037;-80
2023/10/23 01:41:01;;;;;;;30.48;6.40;;;;;;;16.98;68.98;94061.25;5063881;28;20021;-80
2023/10/23 01:43:27;;;;;;;32.70;5.85;;;;;;;17.01;68.84;94055.16;5061709;28;20033;-80
2023/10/23 01:45:52;;;;;;;39.70;6.75;;;;;;;17.03;68.79;94060.97;5062988;28;20334;-85
2023/10/23 01:48:17;;;;;;;36.03;6.40;;;;;;;17.03;69.15;94058.28;5061739;28;20079;-84
2023/10/23 01:50:43;;;;;;;36.38;6.57;;;;;;;17.04;69.54;94053.72;5062794;28;20032;-84
2023/10/23 01:53:08;;;;;;;32.65;6.00;;;;;;;17.04;69.32;94054.47;5061636;28;20196;-85
2023/10/23 01:55:35;;;;;;;23.60;6.05;;;;;;;17.05;69.83;94063.34;5062993;28;20027;-85
2023/10/23 01:58:00;;;;;;;25.88;5.82;;;;;;;17.03;69.72;94066.38;5061990;28;20017;-85
2023/10/23 02:00:26;;;;;;;29.75;5.93;;;;;;;17.04;69.98;94067.16;5061822;28;20060;-84
2023/10/23 02:02:51;;;;;;;25.50;6.40;;;;;;;17.03;70.05;94068.28;5062257;28;20025;-84
2023/10/23 02:05:17;;;;;;;32.63;6.95;;;;;;;17.04;69.94;94067.94;5061692;28;20029;-85
2023/10/23 02:07:42;;;;;;;30.05;7.13;;;;;;;17.04;69.88;94069.88;5062808;28;20078;-84
2023/10/23 02:10:08;;;;;;;29.77;6.03;;;;;;;17.07;70.00;94068.38;5062026;28;20054;-86
2023/10/23 02:12:33;;;;;;;28.95;6.80;;;;;;;17.08;70.20;94075.34;5061872;28;20196;-84
2023/10/23 02:14:59;;;;;;;27.88;5.60;;;;;;;17.10;70.03;94063.09;5061524;28;20036;-85
2023/10/23 02:17:25;;;;;;;28.58;6.45;;;;;;;16.99;70.43;94065.50;5062357;28;20421;-85
2023/10/23 02:19:50;;;;;;;20.70;5.72;;;;;;;16.99;70.34;94068.19;5062935;28;20021;-84
2023/10/23 02:22:18;;;;;;;26.98;6.13;;;;;;;16.99;70.59;94068.19;5063219;28;20029;-84
2023/10/23 02:24:44;;;;;;;28.67;6.15;;;;;;;16.98;70.78;94066.66;5062110;28;20032;-85
2023/10/23 02:27:10;;;;;;;37.08;7.10;;;;;;;16.96;70.72;94058.13;5063208;28;20024;-84
2023/10/23 02:29:35;;;;;;;33.40;7.15;;;;;;;16.95;70.80;94061.94;5063321;28;20247;-85
2023/10/23 02:32:01;;;;;;;26.70;6.43;;;;;;;16.96;71.00;94073.53;5063410;28;20017;-85
2023/10/23 02:34:26;;;;;;;21.42;6.28;;;;;;;16.90;70.60;94062.22;5063090;28;20025;-84
2023/10/23 02:36:51;;;;;;;20.08;5.90;;;;;;;16.86;70.57;94061.34;5062907;28;20021;-83
2023/10/23 02:39:17;;;;;;;27.35;6.88;;;;;;;16.83;71.04;94067.41;5061245;28;20265;-83
2023/10/23 02:41:43;;;;;;;26.85;6.03;;;;;;;16.81;70.76;94065.09;5062634;28;20349;-83
2023/10/23 02:44:08;;;;;;;32.58;7.97;;;;;;;16.79;70.96;94061.94;5062595;28;20025;-85
2023/10/23 02:46:38;;;;;;;34.38;6.03;;;;;;;16.77;70.89;94066.09;5061813;28;20028;-84
2023/10/23 02:49:04;;;;;;;26.98;6.82;;;;;;;16.71;71.11;94067.47;5061643;28;20159;-84
2023/10/23 02:51:30;;;;;;;22.77;6.45;;;;;;;16.67;70.87;94058.53;5062599;28;20155;-80
2023/10/23 02:53:55;;;;;;;21.65;5.80;;;;;;;16.66;71.29;94068.50;5061257;28;20028;-79
2023/10/23 02:56:21;;;;;;;21.42;7.90;;;;;;;16.60;71.14;94075.28;5062306;28;20120;-79
2023/10/23 02:58:46;;;;;;;25.00;7.80;;;;;;;16.57;71.16;94068.69;5062276;28;20063;-79
2023/10/23 03:01:23;;;;;;;38.75;7.22;;;;;;;16.55;71.10;94064.78;5062303;28;20052;-78
2023/10/23 03:03:49;;;;;;;32.30;6.10;;;;;;;16.53;71.21;94069.72;5061145;28;20029;-78
2023/10/23 03:06:15;;;;;;;26.90;6.18;;;;;;;16.51;71.18;94070.06;5062232;28;20055;-78
2023/10/23 03:08:41;;;;;;;28.48;6.95;;;;;;;16.52;71.28;94071.63;5062194;28;20307;-78
2023/10/23 03:11:06;;;;;;;23.35;5.90;;;;;;;16.49;71.18;94071.56;5062214;28;20020;-78
2023/10/23 03:13:32;;;;;;;43.67;7.05;;;;;;;16.46;71.36;94067.63;5062923;28;20020;-78
2023/10/23 03:15:58;;;;;;;36.45;6.65;;;;;;;16.44;71.40;94067.19;5065607;28;20025;-78
2023/10/23 03:18:23;;;;;;;28.50;5.88;;;;;;;16.42;71.35;94069.44;5065592;28;20240;-77
2023/10/23 03:20:49;;;;;;;32.47;6.80;;;;;;;16.40;71.48;94063.63;5065666;28;20084;-78
2023/10/23 03:23:14;;;;;;;31.60;6.72;;;;;;;16.38;71.80;94068.56;5065675;28;20384;-78
2023/10/23 03:25:42;;;;;;;20.55;6.38;;;;;;;16.38;71.68;94072.03;5065650;28;20040;-78
2023/10/23 03:28:07;;;;;;;33.40;6.45;;;;;;;16.37;71.58;94080.47;5064225;28;20074;-78
2023/10/23 03:30:33;;;;;;;40.97;8.25;;;;;;;16.39;71.66;94080.91;5065652;28;20279;-81
2023/10/23 03:32:58;;;;;;;30.45;8.32;;;;;;;16.37;71.68;94067.78;5065757;28;20017;-83
2023/10/23 03:35:24;;;;;;;31.95;6.07;;;;;;;16.27;72.13;94080.97;5065765;28;20310;-82
2023/10/23 03:37:49;;;;;;;28.42;7.20;;;;;;;16.30;72.13;94083.72;5064550;28;20032;-84
2023/10/23 03:40:15;;;;;;;24.52;6.25;;;;;;;16.33;71.94;94082.28;5065715;28;20067;-83
2023/10/23 03:42:40;;;;;;;27.52;6.88;;;;;;;16.33;72.07;94084.97;5065487;28;20067;-83
2023/10/23 03:45:06;;;;;;;29.30;7.10;;;;;;;16.29;72.42;94082.16;5065563;28;20103;-85
2023/10/23 03:47:31;;;;;;;24.75;7.88;;;;;;;16.25;72.55;94079.38;5065788;28;20029;-85
2023/10/23 03:49:57;;;;;;;21.85;7.75;;;;;;;16.24;72.79;94075.13;5065431;28;20063;-83
2023/10/23 03:52:22;;;;;;;38.15;6.00;;;;;;;16.28;72.48;94077.13;5065579;28;20319;-84
2023/10/23 03:54:48;;;;;;;40.15;7.65;;;;;;;16.24;72.72;94077.81;5065236;28;20020;-84
2023/10/23 03:57:13;;;;;;;27.05;7.03;;;;;;;16.27;72.88;94075.56;5065354;28;20043;-84
2023/10/23 03:59:43;;;;;;;26.00;5.80;;;;;;;16.29;72.77;94076.00;5065308;28;20327;-84
2023/10/23 04:02:08;;;;;;;33.38;6.68;;;;;;;16.34;72.78;94073.06;5065509;28;20231;-82
2023/10/23 04:04:33;;;;;;;28.52;6.88;;;;;;;16.33;72.69;94072.28;5065451;28;20032;-82
2023/10/23 04:06:59;;;;;;;27.75;6.47;;;;;;;16.36;72.57;94073.50;5064865;28;20032;-81
2023/10/23 04:09:24;;;;;;;27.00;6.50;;;;;;;16.36;72.69;94076.97;5064618;28;20381;-82
2023/10/23 04:11:50;;;;;;;23.15;5.78;;;;;;;16.40;72.52;94074.38;5064806;28;20025;-81
2023/10/23 04:14:15;;;;;;;27.85;7.10;;;;;;;16.43;72.47;94079.84;5064997;28;20031;-82
2023/10/23 04:16:42;;;;;;;27.45;5.13;;;;;;;16.42;72.49;94072.94;5064917;28;20104;-84
2023/10/23 04:19:08;;;;;;;29.42;5.55;;;;;;;16.44;72.31;94086.81;5063547;28;20041;-84
2023/10/23 04:21:38;;;;;;;22.75;6.75;;;;;;;16.48;72.08;94069.97;5065130;28;20075;-81
2023/10/23 04:24:05;;;;;;;31.60;7.45;;;;;;;16.51;71.75;94077.38;5063657;28;20031;-81
2023/10/23 04:26:31;;;;;;;22.92;7.00;;;;;;;16.52;71.65;94079.69;5063364;28;20032;-81
2023/10/23 04:28:56;;;;;;;23.00;7.97;;;;;;;16.54;71.60;94085.50;5064613;28;20103;-81
2023/10/23 04:31:21;;;;;;;35.53;7.45;;;;;;;16.57;72.12;94081.38;5065034;28;20024;-81
2023/10/23 04:33:47;;;;;;;36.58;6.47;;;;;;;16.61;71.62;94090.31;5063744;28;20032;-81
2023/10/23 04:36:12;;;;;;;25.70;7.22;;;;;;;16.61;71.78;94096.47;5064934;28;20044;-83
2023/10/23 04:38:37;;;;;;;44.13;7.38;;;;;;;16.67;71.85;94098.91;5064723;28;20200;-82
2023/10/23 04:41:03;;;;;;;31.00;7.65;;;;;;;16.61;71.53;94101.84;5064899;28;20021;-81
2023/10/23 04:43:28;;;;;;;31.08;7.15;;;;;;;16.53;71.79;94094.72;5064616;28;20047;-83
2023/10/23 04:45:56;;;;;;;23.77;6.85;;;;;;;16.56;72.08;94087.84;5064502;28;20039;-81
2023/10/23 04:48:22;;;;;;;35.00;6.97;;;;;;;16.63;72.21;94104.19;5064332;28;20037;-80
2023/10/23 04:50:47;;;;;;;18.85;7.25;;;;;;;16.62;72.43;94098.03;5064321;28;20025;-80
2023/10/23 04:53:13;;;;;;;36.95;7.50;;;;;;;16.56;72.52;94098.63;5064495;28;20056;-81
2023/10/23 04:55:39;;;;;;;27.38;6.60;;;;;;;16.54;72.39;94107.03;5063219;28;20029;-81
2023/10/23 04:58:06;;;;;;;20.75;6.35;;;;;;;16.49;72.57;94093.84;5064442;28;20043;-81
2023/10/23 05:00:37;;;;;;;34.15;7.72;;;;;;;16.51;72.67;94102.34;5064495;28;20225;-82
2023/10/23 05:03:04;;;;;;;38.07;6.70;;;;;;;16.54;72.48;94096.28;5063243;28;20028;-81
2023/10/23 05:05:33;;;;;;;34.20;8.15;;;;;;;16.54;73.05;94088.19;5062938;28;20091;-82
2023/10/23 05:07:59;;;;;;;37.05;7.90;;;;;;;16.59;72.81;94096.03;5062518;28;20054;-81
2023/10/23 05:10:25;;;;;;;42.95;8.80;;;;;;;16.61;72.73;94109.94;5063806;28;20066;-82
2023/10/23 05:12:50;;;;;;;35.88;8.10;;;;;;;16.61;72.86;94101.84;5063854;28;20024;-82
2023/10/23 05:15:17;;;;;;;29.48;7.55;;;;;;;16.60;73.16;94104.88;5063938;28;20027;-78
2023/10/23 05:17:43;;;;;;;31.40;7.43;;;;;;;16.62;72.71;94114.16;5063623;28;20049;-81
2023/10/23 05:20:08;;;;;;;43.03;9.05;;;;;;;16.65;72.93;94118.88;5063803;28;20317;-77
2023/10/23 05:22:34;;;;;;;37.63;8.40;;;;;;;16.69;72.67;94112.78;5063702;28;20032;-77
2023/10/23 05:24:59;;;;;;;31.73;8.55;;;;;;;16.67;72.75;94133.88;5063267;28;20087;-77
2023/10/23 05:27:25;;;;;;;42.55;9.68;;;;;;;16.59;72.88;94132.94;5063430;28;20074;-79
2023/10/23 05:29:50;;;;;;;44.05;10.60;;;;;;;16.47;73.52;94131.06;5063736;28;20029;-80
2023/10/23 05:32:16;;;;;;;30.85;9.10;;;;;;;16.44;73.68;94129.06;5063704;28;20257;-81
2023/10/23 05:34:44;;;;;;;30.98;9.23;;;;;;;16.43;73.67;94122.91;5063851;28;20032;-79
2023/10/23 05:37:09;;;;;;;25.38;9.43;;;;;;;16.47;73.94;94123.00;5062619;28;20021;-80
2023/10/23 05:39:35;;;;;;;36.50;8.93;;;;;;;16.50;74.13;94127.69;5062624;28;20017;-79
2023/10/23 05:42:03;;;;;;;35.65;9.98;;;;;;;16.54;74.37;94131.25;5062614;28;20067;-79
2023/10/23 05:44:28;;;;;;;36.17;8.77;;;;;;;16.59;74.05;94136.41;5063322;28;20061;-84
2023/10/23 05:46:53;;;;;;;34.13;9.75;;;;;;;16.61;73.87;94128.75;5061767;28;20044;-84
2023/10/23 05:49:19;;;;;;;42.35;9.13;;;;;;;16.65;74.00;94128.88;5062203;28;20397;-83
2023/10/23 05:51:45;;;;;;;30.10;8.52;;;;;;;16.71;73.90;94140.13;5063437;28;20027;-78
2023/10/23 05:54:10;;;;;;;34.10;9.15;;;;;;;16.76;73.70;94140.66;5063178;28;20250;-79
2023/10/23 05:56:36;;;;;;;38.50;9.25;;;;;;;16.84;73.99;94130.91;5063122;28;20031;-76
2023/10/23 05:59:02;;;;;;;37.80;7.97;;;;;;;16.89;74.11;94138.72;5061690;28;20042;-88
2023/10/23 06:01:27;;;;;;;29.02;8.35;;;;;;;16.72;74.78;94133.63;5062964;28;20020;-87
2023/10/23 06:03:53;;;;;;;28.20;9.13;;;;;;;16.82;73.85;94135.84;5063020;28;20021;-75
2023/10/23 06:06:18;;;;;;;40.15;9.77;;;;;;;16.85;73.64;94135.16;5064001;28;20078;-79
2023/10/23 06:08:44;;;;;;;39.55;10.95;;;;;;;16.91;73.49;94127.59;5064222;28;20113;-80
2023/10/23 06:11:10;;;;;;;31.45;9.50;;;;;;;16.99;74.07;94135.50;5061602;28;20078;-79
2023/10/23 06:13:36;;;;;;;35.15;9.85;;;;;;;17.05;73.15;94142.19;5062658;28;20037;-80
2023/10/23 06:16:04;;;;;;;29.27;8.25;;;;;;;17.10;72.55;94148.47;5063101;28;20033;-81
2023/10/23 06:18:32;;;;;;;49.38;9.82;;;;;;;17.03;72.31;94149.06;5062390;28;20440;-78
2023/10/23 06:21:03;;;;;;;34.13;8.18;;;;;;;16.98;72.24;94158.19;5062569;28;20092;-77
2023/10/23 06:23:39;;;;;;;42.20;11.70;;;;;;;16.98;73.06;94155.50;5062670;28;20048;-79
2023/10/23 06:26:06;;;;;;;42.92;9.25;;;;;;;16.97;73.45;94159.31;5062526;28;20040;-81
2023/10/23 06:28:32;;;;;;;48.50;10.20;;;;;;;16.98;73.33;94157.41;5062623;28;20032;-81
2023/10/23 06:31:09;;;;;;;38.90;9.75;;;;;;;16.97;73.04;94162.00;5061463;28;20311;-81
2023/10/23 06:33:36;;;;;;;28.13;9.00;;;;;;;17.00;73.05;94174.78;5062595;28;20024;-79
2023/10/23 06:36:03;;;;;;;33.05;8.85;;;;;;;17.05;72.59;94171.81;5061118;28;20025;-79
2023/10/23 06:38:29;;;;;;;34.75;9.40;;;;;;;17.02;72.46;94175.22;5061295;28;20092;-80
2023/10/23 06:40:55;;;;;;;37.13;10.40;;;;;;;17.01;72.56;94173.63;5062524;28;20032;-81
2023/10/23 06:43:20;;;;;;;53.88;13.13;;;;;;;17.07;73.00;94168.00;5062458;28;20020;-81
2023/10/23 06:45:45;;;;;;;45.63;9.07;;;;;;;17.14;72.81;94168.22;5062297;28;20016;-81
2023/10/23 06:48:13;;;;;;;43.60;10.27;;;;;;;17.25;72.73;94180.00;5061081;28;20024;-80
2023/10/23 06:50:45;;;;;;;40.42;10.93;;;;;;;17.40;71.93;94176.56;5066243;28;20023;-80
2023/10/23 06:53:10;;;;;;;39.78;11.13;;;;;;;17.50;71.16;94179.84;5066410;28;20052;-81
2023/10/23 06:55:36;;;;;;;47.53;10.32;;;;;;;17.55;70.59;94176.88;5066526;28;20017;-81
2023/10/23 06:58:01;;;;;;;51.67;10.60;;;;;;;17.56;70.59;94186.53;5065361;28;20373;-81
2023/10/23 07:00:26;;;;;;;40.38;9.40;;;;;;;17.58;70.57;94193.13;5064952;28;20017;-81
2023/10/23 07:02:52;;;;;;;44.25;9.82;;;;;;;17.63;70.38;94192.09;5066144;28;20024;-81
2023/10/23 07:05:17;;;;;;;32.45;10.32;;;;;;;17.70;70.18;94186.84;5066368;28;20017;-81
2023/10/23 07:07:43;;;;;;;36.80;9.25;;;;;;;17.77;69.97;94189.72;5065694;28;20058;-81
2023/10/23 07:10:09;;;;;;;41.88;10.20;;;;;;;17.89;69.48;94188.06;5065871;28;20195;-81
2023/10/23 07:12:35;;;;;;;35.83;10.35;;;;;;;18.03;68.91;94191.88;5066139;28;20075;-81
2023/10/23 07:15:01;;;;;;;47.00;10.43;;;;;;;18.22;68.13;94190.34;5064691;28;20033;-81
2023/10/23 07:17:27;;;;;;;36.95;10.55;;;;;;;18.28;67.45;94194.34;5065593;28;20066;-81
2023/10/23 07:19:53;;;;;;;37.53;10.27;;;;;;;18.34;67.08;94181.31;5065607;28;20199;-80
2023/10/23 07:22:46;;;;;;;36.45;9.43;;;;;;;18.42;67.04;94191.16;5065484;28;20035;-78
2023/10/23 07:25:12;;;;;;;41.75;8.02;;;;;;;18.43;66.85;94176.50;5063478;28;20025;-83
2023/10/23 07:27:39;;;;;;;31.83;8.65;;;;;;;18.53;66.94;94184.03;5062948;28;20247;-84
2023/10/23 07:30:05;;;;;;;41.00;9.52;;;;;;;18.59;66.71;94181.84;5065085;28;20087;-81
2023/10/23 07:32:30;;;;;;;41.60;9.43;;;;;;;18.60;65.90;94181.50;5065629;28;20043;-80
2023/10/23 07:34:56;;;;;;;32.67;8.40;;;;;;;18.59;65.87;94179.91;5065484;28;20027;-81
2023/10/23 07:37:22;;;;;;;34.53;9.93;;;;;;;18.62;66.30;94192.72;5065352;28;20037;-82
2023/10/23 07:39:48;;;;;;;34.13;8.93;;;;;;;18.62;65.90;94176.53;5065359;28;20044;-82
2023/10/23 07:42:17;;;;;;;32.53;8.43;;;;;;;18.69;65.39;94183.19;5065061;28;20032;-82
2023/10/23 07:44:42;;;;;;;45.50;8.75;;;;;;;18.72;65.41;94185.16;5064173;28;20021;-82
2023/10/23 07:47:08;;;;;;;31.52;8.35;;;;;;;18.75;65.52;94181.78;5063926;28;20192;-83
2023/10/23 07:49:33;;;;;;;32.78;7.97;;;;;;;18.86;65.25;94180.06;5063977;28;20027;-82
2023/10/23 07:51:59;;;;;;;35.17;8.77;;;;;;;18.92;64.58;94188.66;5065147;28;20204;-82
2023/10/23 07:54:24;;;;;;;41.03;10.15;;;;;;;18.95;64.56;94186.03;5064838;28;20391;-83
2023/10/23 07:56:49;;;;;;;22.75;7.40;;;;;;;18.94;64.10;94183.69;5063815;28;20059;-82
2023/10/23 07:59:17;;;;;;;37.42;9.80;;;;;;;19.00;64.04;94187.66;5064882;28;20032;-82
2023/10/23 08:01:42;;;;;;;35.05;10.20;;;;;;;19.06;64.31;94174.66;5064722;28;20230;-81
2023/10/23 08:04:08;;;;;;;37.95;8.88;;;;;;;19.10;63.79;94178.97;5065156;28;20029;-82
2023/10/23 08:06:34;;;;;;;39.22;8.98;;;;;;;19.11;63.55;94182.44;5065142;28;20025;-84
2023/10/23 08:08:59;;;;;;;43.25;9.18;;;;;;;19.12;63.52;94179.38;5064547;28;20314;-81
2023/10/23 08:11:25;;;;;;;39.83;9.65;;;;;;;19.21;63.42;94182.66;5064836;28;20036;-81
2023/10/23 08:13:50;;;;;;;32.25;8.73;;;;;;;19.33;63.26;94187.06;5064716;28;20048;-82
2023/10/23 08:16:16;;;;;;;33.65;8.20;;;;;;;19.36;62.81;94185.59;5063451;28;20056;-81
2023/10/23 08:18:41;;;;;;;44.38;11.05;;;;;;;19.35;62.75;94187.50;5064445;28;20111;-82
2023/10/23 08:21:11;;;;;;;43.67;9.95;;;;;;;19.39;62.59;94184.84;5064886;28;20021;-81
2023/10/23 08:23:37;;;;;;;37.85;11.15;;;;;;;19.36;62.59;94183.66;5064856;28;20303;-84
2023/10/23 08:26:03;;;;;;;32.80;9.73;;;;;;;19.35;62.53;94184.78;5080337;28;20047;-83
2023/10/23 08:28:29;;;;;;;33.20;8.93;;;;;;;19.35;62.54;94189.41;5064463;28;20035;-84
2023/10/23 08:30:55;;;;;;;49.00;10.48;;;;;;;19.50;62.56;94185.03;5064530;28;20218;-85
2023/10/23 08:33:20;;;;;;;32.92;9.40;;;;;;;19.62;62.18;94177.53;5064741;28;20024;-84
2023/10/23 08:35:45;;;;;;;35.33;11.18;;;;;;;19.68;61.82;94172.56;5064662;28;20021;-85
2023/10/23 08:38:11;;;;;;;39.92;10.05;;;;;;;19.71;62.08;94174.59;5064362;28;20021;-83
2023/10/23 08:40:37;;;;;;;39.20;9.60;;;;;;;19.79;61.38;94180.88;5064069;28;20021;-84
2023/10/23 08:43:02;;;;;;;34.20;9.82;;;;;;;19.91;61.39;94177.97;5064466;28;20021;-83
2023/10/23 08:45:28;;;;;;;44.30;10.05;;;;;;;20.04;61.24;94176.59;5064451;28;20025;-84
2023/10/23 08:47:53;;;;;;;44.42;9.40;;;;;;;20.19;60.13;94177.59;5063125;28;20060;-83
2023/10/23 08:50:19;;;;;;;44.15;9.02;;;;;;;20.24;60.13;94176.50;5064457;28;20025;-83
2023/10/23 08:52:52;;;;;;;61.28;10.73;;;;;;;20.35;59.63;94179.34;5064267;28;20016;-83
2023/10/23 08:55:19;;;;;;;34.75;10.60;;;;;;;20.44;59.27;94172.50;5062880;28;20246;-83
2023/10/23 08:57:54;;;;;;;37.97;9.15;;;;;;;20.45;58.86;94178.69;5064094;28;20086;-83
2023/10/23 09:00:24;;;;;;;33.72;8.32;;;;;;;20.51;58.66;94171.81;5063917;28;20013;-83
2023/10/23 09:02:50;;;;;;;32.63;8.38;;;;;;;20.55;58.80;94174.56;5063182;28;20100;-83
2023/10/23 09:05:16;;;;;;;39.78;8.63;;;;;;;20.59;58.66;94170.75;5063880;28;20016;-82
2023/10/23 09:07:41;;;;;;;34.25;9.07;;;;;;;20.68;58.49;94164.28;5062524;28;20017;-81
2023/10/23 09:10:07;;;;;;;33.97;8.38;;;;;;;20.76;57.72;94169.44;5061293;28;20020;-82
2023/10/23 09:12:35;;;;;;;27.92;8.77;;;;;;;20.84;58.26;94165.66;5064429;28;20083;-86
2023/10/23 09:15:16;;;;;;;35.85;9.05;;;;;;;20.94;57.63;94166.13;5064412;28;20043;-84
2023/10/23 09:17:43;;;;;;;36.38;10.70;;;;;;;21.00;57.48;94165.44;5063532;28;20044;-86
2023/10/23 09:20:21;;;;;;;36.33;8.90;;;;;;;21.04;56.62;94165.44;5079014;28;20056;-86
2023/10/23 09:22:49;;;;;;;35.03;10.30;;;;;;;21.00;56.74;94159.22;5062183;28;20027;-85
2023/10/23 09:25:22;;;;;;;39.20;9.15;;;;;;;20.97;56.96;94163.44;5060896;28;20040;-84
2023/10/23 09:27:49;;;;;;;43.30;8.50;;;;;;;20.99;57.24;94163.84;5061843;28;20043;-84
2023/10/23 09:30:21;;;;;;;37.15;8.25;;;;;;;21.08;56.86;94165.50;5061376;28;20028;-83
2023/10/23 09:32:53;;;;;;;36.75;8.80;;;;;;;21.12;56.21;94171.72;5061513;28;20025;-83
2023/10/23 09:35:19;;;;;;;46.20;9.05;;;;;;;21.17;56.69;94160.56;5061536;28;20254;-84
2023/10/23 09:37:44;;;;;;;25.63;7.78;;;;;;;21.23;55.72;94162.53;5060745;28;20031;-84
2023/10/23 09:40:13;;;;;;;40.78;9.10;;;;;;;21.26;55.92;94163.72;5061579;28;20024;-84
2023/10/23 09:42:40;;;;;;;43.80;9.95;;;;;;;21.34;55.66;94151.78;5061527;28;20028;-84
2023/10/23 09:45:06;;;;;;;40.28;8.63;;;;;;;21.46;55.34;94155.41;5061340;28;20036;-84
2023/10/23 09:47:32;;;;;;;38.22;7.82;;;;;;;21.60;55.45;94159.00;5061519;28;20013;-84
2023/10/23 09:49:59;;;;;;;34.90;8.55;;;;;;;21.71;55.27;94142.03;5061347;28;20086;-84
2023/10/23 09:52:26;;;;;;;30.15;7.78;;;;;;;21.89;53.66;94158.44;5061390;28;20033;-84
2023/10/23 09:55:05;;;;;;;43.97;8.70;;;;;;;21.97;53.48;94154.63;5061133;28;20096;-84
2023/10/23 09:57:44;;;;;;;41.63;8.18;;;;;;;22.07;53.36;94148.47;5060291;28;20033;-84
2023/10/23 10:00:14;;;;;;;35.67;8.07;;;;;;;22.13;53.29;94138.03;5061278;28;20058;-85
2023/10/23 10:02:51;;;;;;;36.33;8.63;;;;;;;22.20;52.77;94141.53;5062852;28;20040;-84
2023/10/23 10:05:44;;;;;;;50.03;8.63;;;;;;;22.23;52.15;94140.03;5061634;28;20016;-84
2023/10/23 10:08:15;;;;;;;35.45;8.52;;;;;;;22.30;52.13;94131.94;5061632;28;20025;-84
2023/10/23 10:10:42;;;;;;;42.20;9.02;;;;;;;22.30;51.73;94133.88;5061562;28;20036;-84
2023/10/23 10:13:09;;;;;;;38.10;8.57;;;;;;;22.37;52.10;94129.25;5062566;28;20048;-84
2023/10/23 10:15:35;;;;;;;36.40;9.20;;;;;;;22.45;52.44;94124.66;5062901;28;20024;-84
2023/10/23 10:18:03;;;;;;;36.42;8.18;;;;;;;22.53;51.56;94120.78;5061648;28;20049;-84
2023/10/23 10:20:30;;;;;;;41.22;8.40;;;;;;;22.44;51.03;94123.06;5062780;28;20021;-84
2023/10/23 10:23:07;;;;;;;31.38;7.72;;;;;;;22.51;51.19;94123.13;5062518;28;20075;-85
2023/10/23 10:25:37;;;;;;;30.40;7.40;;;;;;;22.51;50.85;94128.53;5066966;28;20017;-84
2023/10/23 10:28:05;;;;;;;47.42;8.95;;;;;;;22.58;50.72;94125.06;5066920;28;20025;-84
2023/10/23 10:30:49;;;;;;;39.42;8.07;;;;;;;22.65;50.38;94116.94;5066676;28;20044;-84
2023/10/23 10:33:22;;;;;;;36.28;8.15;;;;;;;22.65;49.86;94114.22;5066530;28;20078;-84
2023/10/23 10:36:07;;;;;;;44.78;8.25;;;;;;;22.63;50.38;94117.34;5066454;28;20020;-84
2023/10/23 10:38:34;;;;;;;35.55;7.72;;;;;;;22.80;50.34;94104.94;5066405;28;20021;-84
2023/10/23 10:41:04;;;;;;;39.28;9.25;;;;;;;22.91;49.48;94099.53;5066428;28;20035;-83
2023/10/23 10:43:33;;;;;;;38.67;7.75;;;;;;;22.92;49.83;94098.38;5066726;28;20090;-83
2023/10/23 10:46:12;;;;;;;31.30;7.57;;;;;;;22.89;49.53;94096.41;5066480;28;20040;-84
2023/10/23 10:48:46;;;;;;;44.78;8.25;;;;;;;22.93;49.62;94099.91;5065859;28;20033;-84
2023/10/23 10:51:20;;;;;;;39.28;8.93;;;;;;;22.89;49.48;94093.69;5066281;28;20333;-83
2023/10/23 10:53:46;;;;;;;42.55;8.00;;;;;;;22.80;49.48;94090.59;5066214;28;20028;-84
2023/10/23 10:56:14;;;;;;;38.10;8.27;;;;;;;22.65;49.62;94081.63;5066210;28;20311;-83
2023/10/23 10:58:43;;;;;;;42.75;8.32;;;;;;;22.61;49.06;94081.63;5066274;28;20021;-83
2023/10/23 11:01:09;;;;;;;38.10;7.30;;;;;;;22.57;48.88;94071.91;5064900;28;20025;-83
2023/10/23 11:03:36;;;;;;;37.28;8.25;;;;;;;22.44;49.10;94068.75;5066130;28;20362;-83
2023/10/23 11:06:02;;;;;;;39.88;8.07;;;;;;;22.36;49.86;94067.19;5065085;28;20083;-83
2023/10/23 11:08:28;;;;;;;31.08;6.95;;;;;;;22.30;48.92;94069.47;5065979;28;20071;-82
2023/10/23 11:11:02;;;;;;;40.58;7.82;;;;;;;22.33;49.33;94068.72;5066090;28;20254;-83
2023/10/23 11:13:27;;;;;;;42.42;7.47;;;;;;;22.34;49.38;94064.06;5064828;28;20330;-83
2023/10/23 11:15:55;;;;;;;44.08;8.07;;;;;;;22.38;48.89;94062.16;5064607;28;20033;-83
2023/10/23 11:18:20;;;;;;;39.45;7.43;;;;;;;22.47;49.59;94059.88;5065560;28;20041;-83
2023/10/23 11:20:47;;;;;;;36.95;8.65;;;;;;;22.61;49.14;94057.19;5065735;28;20108;-83
2023/10/23 11:23:16;;;;;;;28.38;6.53;;;;;;;22.78;47.17;94052.16;5047197;28;20037;-82